Time;durP1;ratioP1;P1;durP2;ratioP2;P2;SDS_P1;SDS_P2;PMS_P1;PMS_P2;Temp;Humidity;BMP_temperature;BMP_pressure;BME280_temperature;BME280_humidity;BME280_pressure;Samples;Min_cycle;Max_cycle;Signal;HPM_P1;HPM_P2
2023/04/03 00:00:04;;;;;;;0.10;0.10;;;2.60;99.90;;;;;;5115456;28;20449;-82
2023/04/03 00:02:30;;;;;;;0.00;0.00;;;2.60;99.90;;;;;;5134697;28;20074;-81
2023/04/03 00:04:56;;;;;;;0.00;0.00;;;2.60;99.90;;;;;;5115880;28;20047;-81
2023/04/03 00:07:21;;;;;;;0.10;0.03;;;3.30;99.90;;;;;;5115703;28;20142;-81
2023/04/03 00:09:47;;;;;;;0.03;0.03;;;2.60;99.90;;;;;;5115977;28;20045;-81
2023/04/03 00:12:13;;;;;;;0.00;0.00;;;2.50;99.90;;;;;;5133969;28;20050;-81
2023/04/03 00:14:39;;;;;;;0.23;0.23;;;2.50;99.90;;;;;;5098862;28;20047;-81
2023/04/03 00:17:04;;;;;;;0.40;0.13;;;2.50;99.90;;;;;;5133928;28;20055;-82
2023/04/03 00:19:30;;;;;;;0.10;0.00;;;2.40;99.90;;;;;;5133887;28;20106;-81
2023/04/03 00:21:56;;;;;;;0.23;0.13;;;2.40;99.90;;;;;;5116060;28;20390;-81
2023/04/03 00:24:22;;;;;;;0.00;0.00;;;2.40;99.90;;;;;;5134302;28;20046;-81
2023/04/03 00:26:47;;;;;;;0.00;0.00;;;2.30;99.90;;;;;;5134401;28;20101;-81
2023/04/03 00:29:13;;;;;;;0.10;0.10;;;2.30;99.90;;;;;;5133610;28;20039;-81
2023/04/03 00:31:39;;;;;;;0.10;0.10;;;2.30;99.90;;;;;;5115511;28;20090;-81
2023/04/03 00:34:05;;;;;;;0.05;0.05;;;2.40;99.90;;;;;;5136558;27;20047;-88
2023/04/03 00:36:31;;;;;;;0.00;0.00;;;2.60;99.90;;;;;;5119678;27;20043;-81
2023/04/03 00:38:56;;;;;;;0.20;0.10;;;2.20;99.90;;;;;;5137643;27;20069;-81
2023/04/03 00:41:22;;;;;;;0.00;0.00;;;2.20;99.90;;;;;;5119262;27;20074;-81
2023/04/03 00:43:48;;;;;;;0.00;0.00;;;2.10;99.90;;;;;;5137958;27;20122;-81
2023/04/03 00:46:14;;;;;;;0.00;0.00;;;2.10;99.90;;;;;;5137288;27;20050;-81
2023/04/03 00:48:47;;;;;;;0.20;0.07;;;2.10;99.90;;;;;;5137389;27;20049;-81
2023/04/03 00:51:24;;;;;;;0.00;0.00;;;2.10;99.90;;;;;;5119276;27;20053;-81
2023/04/03 00:53:58;;;;;;;0.00;0.00;;;2.00;99.90;;;;;;5119273;27;20081;-81
2023/04/03 00:56:26;;;;;;;0.00;0.00;;;2.00;99.90;;;;;;5137243;27;20461;-81
2023/04/03 00:59:00;;;;;;;0.00;0.00;;;2.00;99.90;;;;;;5102307;27;20051;-82
2023/04/03 01:01:28;;;;;;;0.00;0.00;;;2.00;99.90;;;;;;5137034;27;20121;-82
2023/04/03 01:03:54;;;;;;;0.10;0.00;;;2.10;99.90;;;;;;5137559;27;20125;-81
2023/04/03 01:06:25;;;;;;;0.00;0.00;;;1.90;99.90;;;;;;5119048;27;20135;-81
2023/04/03 01:08:52;;;;;;;0.00;0.00;;;1.80;99.90;;;;;;5137348;27;20078;-81
2023/04/03 01:11:18;;;;;;;0.08;0.08;;;1.80;99.90;;;;;;5118691;27;20132;-81
2023/04/03 01:13:44;;;;;;;0.00;0.00;;;1.80;99.90;;;;;;5137210;27;20085;-82
2023/04/03 01:16:10;;;;;;;0.10;0.10;;;1.80;99.90;;;;;;5136776;27;20409;-89
2023/04/03 01:18:38;;;;;;;0.00;0.00;;;1.80;99.90;;;;;;5118810;27;20084;-81
2023/04/03 01:21:16;;;;;;;0.08;0.00;;;1.80;99.90;;;;;;5136944;27;20046;-81
2023/04/03 01:23:55;;;;;;;0.10;0.10;;;1.70;99.90;;;;;;5118853;27;20129;-81
2023/04/03 01:26:21;;;;;;;0.00;0.00;;;1.70;99.90;;;;;;5136463;27;20084;-81
2023/04/03 01:28:47;;;;;;;0.03;0.03;;;1.70;99.90;;;;;;5118117;27;20043;-81
2023/04/03 01:31:22;;;;;;;0.20;0.17;;;1.70;99.90;;;;;;5118542;27;20059;-88
2023/04/03 01:33:48;;;;;;;0.00;0.00;;;1.70;99.90;;;;;;5136164;27;20113;-81
2023/04/03 01:36:20;;;;;;;0.00;0.00;;;1.80;99.90;;;;;;5136495;27;20171;-89
2023/04/03 01:38:46;;;;;;;0.00;0.00;;;1.60;99.90;;;;;;5136575;27;20374;-81
2023/04/03 01:41:12;;;;;;;0.00;0.00;;;1.60;99.90;;;;;;5136641;27;20047;-81
2023/04/03 01:43:38;;;;;;;0.00;0.00;;;1.60;99.90;;;;;;5136067;27;20043;-81
2023/04/03 01:46:04;;;;;;;0.00;0.00;;;1.70;99.90;;;;;;5135347;27;20542;-82
2023/04/03 01:48:29;;;;;;;0.10;0.10;;;1.50;99.90;;;;;;5118007;27;20043;-81
2023/04/03 01:50:55;;;;;;;0.00;0.00;;;1.50;99.90;;;;;;5136460;27;20039;-81
2023/04/03 01:53:21;;;;;;;0.10;0.10;;;1.50;99.90;;;;;;5117973;27;20050;-81
2023/04/03 01:55:46;;;;;;;0.53;0.20;;;1.50;99.90;;;;;;5136338;27;20039;-81
2023/04/03 01:58:12;;;;;;;0.00;0.00;;;1.50;99.90;;;;;;5136528;27;20136;-81
2023/04/03 02:00:38;;;;;;;0.33;0.10;;;1.40;99.90;;;;;;5135822;27;20082;-81
2023/04/03 02:03:04;;;;;;;0.20;0.10;;;1.40;99.90;;;;;;5117954;27;20049;-81
2023/04/03 02:05:29;;;;;;;0.00;0.00;;;1.40;99.90;;;;;;5117826;27;20124;-81
2023/04/03 02:07:56;;;;;;;0.10;0.10;;;1.40;99.90;;;;;;5118028;27;20061;-81
2023/04/03 02:10:22;;;;;;;0.00;0.00;;;1.40;99.90;;;;;;5117565;27;20556;-81
2023/04/03 02:12:47;;;;;;;0.20;0.00;;;1.40;99.90;;;;;;5101104;27;20130;-81
2023/04/03 02:15:13;;;;;;;0.10;0.10;;;1.30;99.90;;;;;;5117322;27;20043;-81
2023/04/03 02:17:39;;;;;;;0.00;0.00;;;1.30;99.90;;;;;;5135524;27;20065;-81
2023/04/03 02:20:05;;;;;;;0.00;0.00;;;1.30;99.90;;;;;;5135892;27;20035;-81
2023/04/03 02:22:31;;;;;;;0.00;0.00;;;1.30;99.90;;;;;;5117066;27;20094;-81
2023/04/03 02:24:56;;;;;;;0.00;0.00;;;1.30;99.90;;;;;;5117279;27;20086;-81
2023/04/03 02:27:22;;;;;;;0.10;0.10;;;1.30;99.90;;;;;;5100393;27;20046;-82
2023/04/03 02:29:48;;;;;;;0.20;0.20;;;1.70;99.90;;;;;;5135629;27;20039;-81
2023/04/03 02:32:13;;;;;;;0.27;0.27;;;1.50;99.90;;;;;;5117648;27;20492;-81
2023/04/03 02:34:39;;;;;;;0.03;0.03;;;1.20;99.90;;;;;;5117132;27;20105;-81
2023/04/03 02:37:05;;;;;;;0.07;0.07;;;1.20;99.90;;;;;;5100256;27;20403;-81
2023/04/03 02:39:30;;;;;;;0.63;0.63;;;1.20;99.90;;;;;;5135072;27;20116;-81
2023/04/03 02:41:56;;;;;;;0.10;0.10;;;1.20;99.90;;;;;;5100260;27;20047;-81
2023/04/03 02:44:23;;;;;;;0.20;0.10;;;1.10;99.90;;;;;;5135432;27;20129;-85
2023/04/03 02:46:49;;;;;;;;;;;1.20;99.90;;;;;;5117331;27;20047;-81
2023/04/03 02:49:15;;;;;;;0.20;0.15;;;1.10;99.90;;;;;;5116644;27;19919;-81
2023/04/03 02:51:41;;;;;;;0.10;0.10;;;1.10;99.90;;;;;;5116599;27;20156;-81
2023/04/03 02:54:07;;;;;;;0.10;0.10;;;1.00;99.90;;;;;;5134707;27;20082;-81
2023/04/03 02:56:32;;;;;;;0.10;0.10;;;1.00;99.90;;;;;;5134490;27;20043;-82
2023/04/03 02:58:58;;;;;;;0.17;0.13;;;1.40;99.90;;;;;;5135334;27;20043;-82
2023/04/03 03:01:24;;;;;;;0.10;0.10;;;0.90;99.90;;;;;;5134917;27;20431;-89
2023/04/03 03:03:50;;;;;;;0.10;0.10;;;0.90;99.90;;;;;;5116965;27;20047;-81
2023/04/03 03:06:17;;;;;;;0.10;0.10;;;0.90;99.90;;;;;;5134843;27;20088;-81
2023/04/03 03:08:43;;;;;;;1.08;0.85;;;0.90;99.90;;;;;;5116626;27;20089;-81
2023/04/03 03:11:09;;;;;;;0.10;0.10;;;0.90;99.90;;;;;;5134681;27;20070;-81
2023/04/03 03:13:35;;;;;;;0.10;0.10;;;1.00;99.90;;;;;;5134679;27;20111;-81
2023/04/03 03:16:01;;;;;;;0.20;0.20;;;0.70;99.90;;;;;;5116856;27;20043;-81
2023/04/03 03:18:28;;;;;;;0.30;0.30;;;0.90;99.90;;;;;;5099257;27;20112;-90
2023/04/03 03:20:55;;;;;;;0.00;0.00;;;0.70;99.90;;;;;;5116138;27;20392;-81
2023/04/03 03:23:23;;;;;;;0.00;0.00;;;0.60;99.90;;;;;;5134665;27;20091;-81
2023/04/03 03:25:49;;;;;;;0.25;0.25;;;0.60;99.90;;;;;;5116375;28;20474;-81
2023/04/03 03:28:15;;;;;;;0.57;0.30;;;1.20;99.90;;;;;;5134607;27;20042;-81
2023/04/03 03:30:40;;;;;;;0.00;0.00;;;0.50;99.90;;;;;;5116164;27;20042;-81
2023/04/03 03:33:06;;;;;;;0.00;0.00;;;0.40;99.90;;;;;;5134602;27;20039;-81
2023/04/03 03:35:33;;;;;;;0.20;0.10;;;0.40;99.90;;;;;;5115870;27;20496;-82
2023/04/03 03:37:59;;;;;;;;;;;0.50;99.90;;;;;;5116963;27;20495;-81
2023/04/03 03:40:25;;;;;;;0.00;0.00;;;0.30;99.90;;;;;;5115832;27;20002;-81
2023/04/03 03:42:50;;;;;;;0.20;0.20;;;0.20;99.90;;;;;;5099073;27;20498;-81
2023/04/03 03:45:16;;;;;;;0.10;0.10;;;0.10;99.90;;;;;;5116100;28;20151;-81
2023/04/03 03:47:42;;;;;;;0.10;0.10;;;0.20;99.90;;;;;;5116001;28;20054;-81
2023/04/03 03:50:08;;;;;;;0.37;0.10;;;0.50;99.90;;;;;;5116167;28;20050;-81
2023/04/03 03:52:34;;;;;;;0.17;0.17;;;-0.10;99.90;;;;;;5134126;28;20046;-81
2023/04/03 03:55:00;;;;;;;0.50;0.30;;;0.00;99.90;;;;;;5116443;28;20129;-81
2023/04/03 03:57:28;;;;;;;0.00;0.00;;;-0.10;99.90;;;;;;5115920;28;20047;-81
2023/04/03 03:59:54;;;;;;;0.10;0.10;;;0.00;99.90;;;;;;5098503;28;20039;-81
2023/04/03 04:02:20;;;;;;;0.00;0.00;;;0.50;99.90;;;;;;5133930;28;20505;-81
2023/04/03 04:04:46;;;;;;;0.10;0.10;;;0.40;99.90;;;;;;5115819;28;20090;-81
2023/04/03 04:07:11;;;;;;;0.00;0.00;;;-0.30;99.90;;;;;;5134105;27;20053;-81
2023/04/03 04:09:37;;;;;;;0.00;0.00;;;-0.30;99.90;;;;;;5102794;27;20076;-81
2023/04/03 04:12:03;;;;;;;0.10;0.10;;;-0.30;99.90;;;;;;5119500;27;20050;-81
2023/04/03 04:14:29;;;;;;;0.80;0.37;;;-0.30;99.90;;;;;;5138354;27;20130;-81
2023/04/03 04:16:55;;;;;;;0.00;0.00;;;-0.30;99.90;;;;;;5137969;27;20043;-81
2023/04/03 04:19:20;;;;;;;0.53;0.17;;;-0.30;99.90;;;;;;5120075;27;20039;-81
2023/04/03 04:21:46;;;;;;;0.00;0.00;;;-0.30;99.90;;;;;;5138317;27;20043;-81
2023/04/03 04:24:12;;;;;;;0.13;0.13;;;-0.30;99.90;;;;;;5138164;27;20399;-81
2023/04/03 04:26:37;;;;;;;0.23;0.23;;;-0.30;99.90;;;;;;5119655;27;20043;-83
2023/04/03 04:29:03;;;;;;;0.10;0.10;;;-0.30;99.90;;;;;;5137949;27;20074;-81
2023/04/03 04:31:29;;;;;;;0.20;0.20;;;-0.30;99.90;;;;;;5119495;27;20039;-81
2023/04/03 04:33:54;;;;;;;0.20;0.20;;;0.10;99.90;;;;;;5119497;27;20055;-81
2023/04/03 04:36:20;;;;;;;0.93;0.20;;;-0.20;99.90;;;;;;5137933;27;20043;-81
2023/04/03 04:38:46;;;;;;;0.10;0.10;;;-0.30;99.90;;;;;;5085381;27;20055;-81
2023/04/03 04:41:11;;;;;;;0.10;0.10;;;-0.30;99.90;;;;;;5137422;27;20104;-81
2023/04/03 04:43:37;;;;;;;0.00;0.00;;;0.20;99.90;;;;;;5119566;27;20104;-86
2023/04/03 04:46:11;;;;;;;0.20;0.20;;;-0.40;99.90;;;;;;5119125;27;20118;-81
2023/04/03 04:48:37;;;;;;;0.28;0.00;;;-0.40;99.90;;;;;;5119764;27;20050;-81
2023/04/03 04:51:04;;;;;;;0.47;0.10;;;-0.40;99.90;;;;;;5119241;27;20096;-81
2023/04/03 04:53:29;;;;;;;0.10;0.10;;;-0.40;99.90;;;;;;5102168;27;20299;-82
2023/04/03 04:55:55;;;;;;;0.10;0.10;;;-0.50;99.90;;;;;;5118962;27;20043;-82
2023/04/03 04:58:21;;;;;;;0.20;0.20;;;0.00;99.90;;;;;;5137338;27;20047;-83
2023/04/03 05:00:47;;;;;;;0.40;0.40;;;-0.20;99.90;;;;;;5118602;27;20570;-82
2023/04/03 05:03:13;;;;;;;0.20;0.20;;;-0.40;99.90;;;;;;5101617;27;20076;-81
2023/04/03 05:05:38;;;;;;;0.77;0.10;;;-0.40;99.90;;;;;;5118758;27;20180;-81
2023/04/03 05:08:04;;;;;;;1.10;0.53;;;0.20;99.90;;;;;;5136662;27;20039;-81
2023/04/03 05:10:31;;;;;;;0.10;0.10;;;-0.30;99.90;;;;;;5136792;27;20525;-81
2023/04/03 05:12:57;;;;;;;0.88;0.55;;;-0.30;99.90;;;;;;5118205;27;20480;-81
2023/04/03 05:15:23;;;;;;;0.38;0.17;;;-0.30;99.90;;;;;;5136948;27;20396;-82
2023/04/03 05:17:49;;;;;;;0.37;0.20;;;-0.30;99.90;;;;;;5136755;27;20126;-82
2023/04/03 05:20:15;;;;;;;0.13;0.13;;;-0.30;99.90;;;;;;5117924;27;20112;-81
2023/04/03 05:22:40;;;;;;;0.33;0.20;;;-0.30;99.90;;;;;;5118945;27;20083;-81
2023/04/03 05:25:07;;;;;;;0.10;0.10;;;-0.10;99.90;;;;;;5118257;27;20047;-81
2023/04/03 05:27:32;;;;;;;1.63;0.20;;;-0.30;99.90;;;;;;5118675;27;20043;-82
2023/04/03 05:29:59;;;;;;;0.20;0.20;;;-0.30;99.90;;;;;;5118259;27;20174;-81
2023/04/03 05:32:27;;;;;;;0.00;0.00;;;-0.30;99.90;;;;;;5084409;27;20053;-82
2023/04/03 05:34:53;;;;;;;0.20;0.20;;;-0.30;99.90;;;;;;5118292;27;20504;-82
2023/04/03 05:37:20;;;;;;;0.15;0.15;;;-0.30;99.90;;;;;;5137906;27;20081;-83
2023/04/03 05:39:46;;;;;;;0.60;0.28;;;-0.30;99.90;;;;;;5118001;27;20108;-88
2023/04/03 05:42:12;;;;;;;0.00;0.00;;;0.20;99.90;;;;;;5136157;27;20485;-81
2023/04/03 05:44:38;;;;;;;0.30;0.28;;;-0.20;99.90;;;;;;5117975;27;20054;-82
2023/04/03 05:47:04;;;;;;;0.00;0.00;;;-0.20;99.90;;;;;;5117873;27;20084;-81
2023/04/03 05:49:30;;;;;;;0.17;0.07;;;-0.10;99.90;;;;;;5136527;27;20039;-82
2023/04/03 05:51:56;;;;;;;0.20;0.20;;;-0.10;99.90;;;;;;5117489;27;20277;-83
2023/04/03 05:54:23;;;;;;;0.30;0.30;;;0.80;99.90;;;;;;5136267;27;20050;-82
2023/04/03 05:56:50;;;;;;;0.20;0.20;;;0.00;99.90;;;;;;5135957;27;20050;-86
2023/04/03 05:59:15;;;;;;;;;;;0.10;99.90;;;;;;5136398;27;20119;-82
2023/04/03 06:01:41;;;;;;;2.20;0.20;;;0.50;99.90;;;;;;5117774;27;20354;-81
2023/04/03 06:04:08;;;;;;;0.20;0.20;;;0.50;99.90;;;;;;5117366;27;20039;-81
2023/04/03 06:06:53;;;;;;;0.20;0.13;;;1.00;99.90;;;;;;5100458;27;20485;-82
2023/04/03 06:09:22;;;;;;;2.45;0.22;;;2.20;99.90;;;;;;5117946;27;20046;-80
2023/04/03 06:11:48;;;;;;;0.30;0.22;;;2.00;99.90;;;;;;5135801;27;20053;-80
2023/04/03 06:14:13;;;;;;;0.47;0.43;;;2.70;99.90;;;;;;5100543;27;20047;-81
2023/04/03 06:16:39;;;;;;;0.30;0.30;;;2.80;99.90;;;;;;5117177;27;20447;-80
2023/04/03 06:19:07;;;;;;;0.20;0.20;;;3.00;99.90;;;;;;5117138;27;20451;-81
2023/04/03 06:21:33;;;;;;;0.17;0.17;;;3.40;99.90;;;;;;5135560;27;20354;-81
2023/04/03 06:23:58;;;;;;;0.30;0.23;;;3.70;99.90;;;;;;5117128;27;20050;-81
2023/04/03 06:26:24;;;;;;;0.20;0.20;;;4.00;99.90;;;;;;5100503;27;20545;-79
2023/04/03 06:28:50;;;;;;;1.37;0.30;;;4.20;99.90;;;;;;5135502;27;20392;-80
2023/04/03 06:31:16;;;;;;;0.50;0.50;;;4.40;99.90;;;;;;5133903;27;20051;-81
2023/04/03 06:33:42;;;;;;;;;;;4.60;99.90;;;;;;5117406;27;20047;-81
2023/04/03 06:36:10;;;;;;;0.25;0.25;;;4.70;99.90;;;;;;5134838;27;19926;-80
2023/04/03 06:38:36;;;;;;;1.05;0.77;;;4.80;99.90;;;;;;5116839;27;20051;-81
2023/04/03 06:41:02;;;;;;;0.10;0.10;;;5.10;99.90;;;;;;5134624;27;20055;-81
2023/04/03 06:43:27;;;;;;;0.40;0.25;;;5.20;99.90;;;;;;5116892;27;20039;-81
2023/04/03 06:45:53;;;;;;;1.00;0.13;;;5.40;99.90;;;;;;5099685;27;20093;-81
2023/04/03 06:48:19;;;;;;;0.10;0.10;;;5.60;99.90;;;;;;5116406;27;20092;-81
2023/04/03 06:50:45;;;;;;;0.67;0.47;;;5.90;99.90;;;;;;5116504;27;20516;-82
2023/04/03 06:53:11;;;;;;;0.52;0.52;;;6.10;99.90;;;;;;5099354;27;20051;-81
2023/04/03 06:55:37;;;;;;;2.00;0.30;;;6.20;99.90;;;;;;5116193;27;20058;-83
2023/04/03 06:58:04;;;;;;;0.22;0.20;;;6.40;99.90;;;;;;5134449;27;20047;-82
2023/04/03 07:00:30;;;;;;;0.28;0.28;;;6.40;99.90;;;;;;5116472;27;20119;-81
2023/04/03 07:02:57;;;;;;;0.57;0.35;;;6.50;99.90;;;;;;5116618;27;20059;-81
2023/04/03 07:05:26;;;;;;;0.10;0.10;;;6.60;99.90;;;;;;5134665;27;20046;-82
2023/04/03 07:07:52;;;;;;;0.52;0.30;;;6.80;99.90;;;;;;5099723;27;20047;-82
2023/04/03 07:10:18;;;;;;;0.40;0.28;;;6.80;99.90;;;;;;5134182;27;20233;-83
2023/04/03 07:12:45;;;;;;;0.10;0.10;;;6.80;99.90;;;;;;5116045;27;20070;-82
2023/04/03 07:15:12;;;;;;;0.10;0.10;;;7.30;99.90;;;;;;5098752;27;20043;-82
2023/04/03 07:17:38;;;;;;;0.20;0.20;;;7.00;99.90;;;;;;5116482;28;20043;-83
2023/04/03 07:20:04;;;;;;;0.10;0.10;;;7.10;99.90;;;;;;5081632;27;20047;-82
2023/04/03 07:22:30;;;;;;;0.30;0.20;;;7.30;99.90;;;;;;5099675;28;20047;-81
2023/04/03 07:24:56;;;;;;;0.57;0.38;;;7.60;99.90;;;;;;5134590;27;20084;-81
2023/04/03 07:27:22;;;;;;;0.17;0.17;;;7.70;99.90;;;;;;5134304;27;20118;-82
2023/04/03 07:29:48;;;;;;;0.20;0.20;;;7.60;99.90;;;;;;5134652;27;20039;-81
2023/04/03 07:32:14;;;;;;;0.10;0.10;;;7.70;99.90;;;;;;5134273;27;20408;-82
2023/04/03 07:34:41;;;;;;;0.10;0.10;;;7.80;99.90;;;;;;5134514;27;20370;-83
2023/04/03 07:37:08;;;;;;;0.32;0.32;;;7.80;99.90;;;;;;5134152;27;20137;-82
2023/04/03 07:39:34;;;;;;;0.65;0.10;;;7.80;99.90;;;;;;5115610;28;20493;-81
2023/04/03 07:42:01;;;;;;;0.93;0.40;;;7.80;99.90;;;;;;5115815;27;20050;-81
2023/04/03 07:44:27;;;;;;;0.25;0.15;;;7.80;99.90;;;;;;5115909;27;20389;-81
2023/04/03 07:46:54;;;;;;;0.40;0.30;;;8.10;99.90;;;;;;5133897;27;20485;-81
2023/04/03 07:49:22;;;;;;;0.10;0.10;;;8.30;99.90;;;;;;5115747;28;20043;-81
2023/04/03 07:51:48;;;;;;;0.20;0.20;;;8.30;99.90;;;;;;5115734;28;20043;-81
2023/04/03 07:54:15;;;;;;;0.20;0.20;;;8.50;99.90;;;;;;5133845;28;20085;-82
2023/04/03 07:56:42;;;;;;;0.40;0.40;;;8.50;99.90;;;;;;5134038;28;20036;-81
2023/04/03 07:59:08;;;;;;;0.10;0.10;;;8.60;99.90;;;;;;5115686;28;20126;-82
2023/04/03 08:01:34;;;;;;;0.82;0.55;;;8.70;99.90;;;;;;5115372;28;20046;-81
2023/04/03 08:04:00;;;;;;;0.52;0.20;;;8.80;99.90;;;;;;5099019;28;20039;-81
2023/04/03 08:06:26;;;;;;;0.43;0.15;;;9.00;99.90;;;;;;5133691;28;20485;-81
2023/04/03 08:08:52;;;;;;;0.13;0.13;;;9.10;99.90;;;;;;5134031;28;20078;-81
2023/04/03 08:11:18;;;;;;;0.10;0.10;;;9.20;99.90;;;;;;5133842;28;20043;-81
2023/04/03 08:13:44;;;;;;;0.00;0.00;;;9.10;99.90;;;;;;5099105;28;20047;-81
2023/04/03 08:16:20;;;;;;;0.98;0.20;;;9.20;99.90;;;;;;5133424;28;20092;-83
2023/04/03 08:18:45;;;;;;;0.10;0.10;;;9.20;99.90;;;;;;5115878;28;20112;-87
2023/04/03 08:21:12;;;;;;;0.10;0.10;;;9.20;99.90;;;;;;5116473;28;20043;-82
2023/04/03 08:23:41;;;;;;;0.20;0.13;;;9.10;99.90;;;;;;5115566;28;20341;-83
2023/04/03 08:26:16;;;;;;;0.50;0.40;;;9.10;99.90;;;;;;5115740;28;20378;-83
2023/04/03 08:28:42;;;;;;;0.00;0.00;;;9.30;99.90;;;;;;5133883;28;20043;-83
2023/04/03 08:31:11;;;;;;;0.38;0.20;;;9.60;99.90;;;;;;5115676;28;20050;-83
2023/04/03 08:33:38;;;;;;;0.00;0.00;;;9.60;99.90;;;;;;5115739;28;20035;-83
2023/04/03 08:36:06;;;;;;;0.43;0.30;;;9.60;99.90;;;;;;5115526;28;20134;-86
2023/04/03 08:38:32;;;;;;;0.40;0.20;;;9.70;99.90;;;;;;5116462;28;20047;-82
2023/04/03 08:41:30;;;;;;;0.00;0.00;;;9.50;99.90;;;;;;5115175;28;20055;-82
2023/04/03 08:44:25;;;;;;;0.30;0.20;;;9.40;99.90;;;;;;5115243;28;20094;-84
2023/04/03 08:47:09;;;;;;;0.73;0.20;;;9.40;99.90;;;;;;5133638;28;20050;-84
2023/04/03 08:49:50;;;;;;;1.08;0.20;;;9.20;99.90;;;;;;5114666;28;20082;-84
2023/04/03 08:52:27;;;;;;;0.10;0.10;;;9.40;99.90;;;;;;5098228;28;20444;-85
2023/04/03 08:55:03;;;;;;;0.30;0.20;;;9.60;99.90;;;;;;5135807;27;20450;-84
2023/04/03 08:57:36;;;;;;;0.00;0.00;;;9.80;99.90;;;;;;5137068;27;20047;-84
2023/04/03 09:00:19;;;;;;;0.10;0.10;;;9.70;99.90;;;;;;5137207;27;20044;-84
2023/04/03 09:02:50;;;;;;;0.00;0.00;;;9.70;99.90;;;;;;5102031;27;20039;-84
2023/04/03 09:05:35;;;;;;;0.43;0.25;;;9.50;99.90;;;;;;5137418;27;20035;-84
2023/04/03 09:08:21;;;;;;;0.10;0.10;;;9.40;99.90;;;;;;5137579;27;20043;-83
2023/04/03 09:10:47;;;;;;;0.00;0.00;;;9.30;99.90;;;;;;5102045;27;20130;-83
2023/04/03 09:13:53;;;;;;;0.08;0.08;;;9.30;99.90;;;;;;5101514;27;20035;-83
2023/04/03 09:16:33;;;;;;;0.00;0.00;;;9.30;99.90;;;;;;5136767;27;20043;-83
2023/04/03 09:19:38;;;;;;;0.10;0.10;;;9.10;99.90;;;;;;5136671;27;20485;-83
2023/04/03 09:22:12;;;;;;;0.30;0.17;;;9.30;99.90;;;;;;5129857;27;20066;-83
2023/04/03 09:24:38;;;;;;;0.65;0.20;;;9.50;99.90;;;;;;5101225;27;20050;-83
2023/04/03 09:27:09;;;;;;;0.00;0.00;;;9.80;99.90;;;;;;5118531;27;20039;-83
2023/04/03 09:29:39;;;;;;;0.00;0.00;;;9.70;99.90;;;;;;5136254;27;20528;-84
2023/04/03 09:32:24;;;;;;;0.03;0.00;;;9.80;99.90;;;;;;5118044;27;20051;-83
2023/04/03 09:34:51;;;;;;;0.10;0.10;;;9.80;99.90;;;;;;5136298;27;20051;-84
2023/04/03 09:37:46;;;;;;;0.00;0.00;;;9.50;99.90;;;;;;5136460;27;20118;-84
2023/04/03 09:40:27;;;;;;;0.00;0.00;;;9.40;99.90;;;;;;5118436;27;20164;-84
2023/04/03 09:42:59;;;;;;;0.03;0.00;;;9.50;99.90;;;;;;5118548;27;20046;-84
2023/04/03 09:45:36;;;;;;;0.10;0.10;;;9.50;99.90;;;;;;5136352;27;20109;-84
2023/04/03 09:48:19;;;;;;;0.00;0.00;;;9.60;99.90;;;;;;5136702;27;20425;-84
2023/04/03 09:50:55;;;;;;;0.00;0.00;;;9.70;99.90;;;;;;5136835;27;20042;-84
2023/04/03 09:53:40;;;;;;;0.20;0.10;;;10.10;99.90;;;;;;5136554;27;20467;-91
2023/04/03 09:56:15;;;;;;;0.03;0.03;;;10.40;99.90;;;;;;5136486;27;20039;-84
2023/04/03 09:58:50;;;;;;;0.03;0.03;;;10.80;99.90;;;;;;5118084;27;20360;-84
2023/04/03 10:01:31;;;;;;;0.10;0.10;;;10.80;99.90;;;;;;5136080;27;20118;-84
2023/04/03 10:04:09;;;;;;;0.00;0.00;;;11.00;99.90;;;;;;5118014;27;20043;-84
2023/04/03 10:06:43;;;;;;;0.80;0.03;;;11.00;99.90;;;;;;5116690;27;20542;-84
2023/04/03 10:09:30;;;;;;;0.20;0.10;;;10.90;99.90;;;;;;5117917;27;20130;-84
2023/04/03 10:12:11;;;;;;;0.00;0.00;;;11.00;99.90;;;;;;5117833;27;20050;-84
2023/04/03 10:14:57;;;;;;;0.00;0.00;;;11.10;99.20;;;;;;5117659;27;20043;-86
2023/04/03 10:17:26;;;;;;;0.08;0.03;;;11.00;95.70;;;;;;5117202;27;20039;-84
2023/04/03 10:19:54;;;;;;;0.00;0.00;;;11.00;99.90;;;;;;5117133;27;20067;-83
2023/04/03 10:22:55;;;;;;;0.00;0.00;;;11.00;99.90;;;;;;5117127;27;20035;-83
2023/04/03 10:25:32;;;;;;;0.13;0.13;;;10.90;99.90;;;;;;5099856;27;20047;-83
2023/04/03 10:28:12;;;;;;;0.10;0.10;;;10.80;99.60;;;;;;5099982;27;20047;-82
2023/04/03 10:31:11;;;;;;;0.08;0.08;;;11.10;96.20;;;;;;5116793;27;20047;-83
2023/04/03 10:33:40;;;;;;;;;;;11.20;96.60;;;;;;5117149;27;20043;-85
2023/04/03 10:36:17;;;;;;;0.52;0.22;;;11.10;99.90;;;;;;5116866;27;19919;-84
2023/04/03 10:39:11;;;;;;;0.00;0.00;;;10.80;99.80;;;;;;5115905;27;20039;-84
2023/04/03 10:42:03;;;;;;;0.30;0.10;;;10.70;99.90;;;;;;5116010;27;20431;-83
2023/04/03 10:45:06;;;;;;;0.10;0.10;;;10.90;99.90;;;;;;5134500;27;20035;-84
2023/04/03 10:47:38;;;;;;;0.08;0.08;;;11.00;91.10;;;;;;5099374;27;20532;-84
2023/04/03 10:50:18;;;;;;;0.08;0.05;;;11.20;96.20;;;;;;5099630;27;20423;-84
2023/04/03 10:52:57;;;;;;;0.60;0.00;;;11.40;99.90;;;;;;5116280;27;20086;-81
2023/04/03 10:55:25;;;;;;;0.00;0.00;;;11.40;92.90;;;;;;5116319;27;20099;-81
2023/04/03 10:57:56;;;;;;;1.83;0.50;;;11.70;99.50;;;;;;5134283;27;20128;-86
2023/04/03 11:00:34;;;;;;;0.05;0.05;;;11.80;90.90;;;;;;5134480;27;20035;-82
2023/04/03 11:03:05;;;;;;;0.10;0.00;;;11.70;95.00;;;;;;5117155;27;20035;-82
2023/04/03 11:05:34;;;;;;;0.00;0.00;;;11.60;98.60;;;;;;5116321;27;20472;-83
2023/04/03 11:08:07;;;;;;;0.10;0.10;;;11.70;93.20;;;;;;5134534;27;20039;-81
2023/04/03 11:10:45;;;;;;;0.03;0.03;;;11.50;99.90;;;;;;5134183;27;20039;-81
2023/04/03 11:13:14;;;;;;;0.22;0.10;;;11.20;99.90;;;;;;5134417;27;20062;-81
2023/04/03 11:15:40;;;;;;;0.10;0.00;;;11.10;95.20;;;;;;5133961;27;20065;-85
2023/04/03 11:18:12;;;;;;;0.00;0.00;;;11.30;99.90;;;;;;5115947;27;20096;-84
2023/04/03 11:20:41;;;;;;;0.10;0.10;;;11.50;91.50;;;;;;5133580;27;20489;-83
2023/04/03 11:23:21;;;;;;;0.13;0.13;;;11.70;90.30;;;;;;5115917;27;20039;-84
2023/04/03 11:25:52;;;;;;;0.00;0.00;;;12.20;91.40;;;;;;5133896;27;20043;-87
2023/04/03 11:28:18;;;;;;;0.45;0.00;;;12.50;94.10;;;;;;5134183;27;20035;-84
2023/04/03 11:31:14;;;;;;;0.10;0.10;;;12.60;88.00;;;;;;5133876;27;20039;-83
2023/04/03 11:34:03;;;;;;;0.30;0.10;;;13.00;87.70;;;;;;5098737;27;20389;-84
2023/04/03 11:36:45;;;;;;;0.15;0.10;;;13.20;84.50;;;;;;5114192;27;20043;-84
2023/04/03 11:39:23;;;;;;;0.20;0.20;;;13.10;78.30;;;;;;5133620;27;20051;-85
2023/04/03 11:41:50;;;;;;;0.00;0.00;;;13.00;87.10;;;;;;5133768;27;20047;-84
2023/04/03 11:44:37;;;;;;;0.10;0.10;;;12.90;94.20;;;;;;5115471;27;20051;-83
2023/04/03 11:47:05;;;;;;;0.00;0.00;;;12.90;79.50;;;;;;5134016;27;20044;-86
2023/04/03 11:49:53;;;;;;;0.10;0.10;;;12.90;85.20;;;;;;5115967;28;20078;-85
2023/04/03 11:52:42;;;;;;;0.10;0.10;;;12.70;96.20;;;;;;5115761;28;20106;-84
2023/04/03 11:55:23;;;;;;;0.20;0.20;;;12.90;84.90;;;;;;5116002;28;20073;-85
2023/04/03 11:58:00;;;;;;;0.30;0.10;;;13.00;81.60;;;;;;5133871;28;20358;-84
2023/04/03 12:05:52;;;;;;;0.20;0.10;;;13.20;83.20;;;;;;5115213;28;20126;-86
2023/04/03 12:08:46;;;;;;;0.00;0.00;;;13.30;89.70;;;;;;5133773;28;20135;-85
2023/04/03 12:11:12;;;;;;;0.00;0.00;;;13.30;86.40;;;;;;5133796;28;20037;-85
2023/04/03 12:14:02;;;;;;;0.00;0.00;;;13.30;96.70;;;;;;5115781;28;20461;-85
2023/04/03 12:16:37;;;;;;;0.40;0.40;;;13.50;87.40;;;;;;5115719;28;20039;-83
2023/04/03 12:19:22;;;;;;;0.10;0.10;;;13.40;76.40;;;;;;5115166;28;20524;-81
2023/04/03 12:21:48;;;;;;;0.68;0.52;;;13.60;89.60;;;;;;5133275;28;20094;-81
2023/04/03 12:24:16;;;;;;;0.00;0.00;;;13.50;83.90;;;;;;5115450;28;20104;-82
2023/04/03 12:27:02;;;;;;;0.20;0.08;;;13.40;88.10;;;;;;5115652;28;20389;-84
2023/04/03 12:29:46;;;;;;;0.10;0.10;;;13.30;79.50;;;;;;5135880;27;20366;-82
2023/04/03 12:32:48;;;;;;;0.10;0.00;;;13.50;90.00;;;;;;5138015;27;20047;-82
2023/04/03 12:35:31;;;;;;;0.20;0.20;;;13.70;73.90;;;;;;5119581;27;20489;-82
2023/04/03 12:38:12;;;;;;;0.20;0.20;;;13.90;82.10;;;;;;5137727;27;20050;-82
2023/04/03 12:40:56;;;;;;;0.05;0.05;;;13.80;88.20;;;;;;5118975;27;20058;-82
2023/04/03 12:43:37;;;;;;;0.30;0.22;;;13.60;75.00;;;;;;5119601;27;20047;-82
2023/04/03 12:46:09;;;;;;;0.03;0.03;;;13.60;79.10;;;;;;5119046;27;20027;-82
2023/04/03 12:48:57;;;;;;;2.30;0.30;;;13.90;77.60;;;;;;5119424;27;20047;-82
2023/04/03 12:51:32;;;;;;;;;;;14.10;72.40;;;;;;5120105;27;20062;-82
2023/04/03 12:54:12;;;;;;;0.15;0.10;;;14.30;69.50;;;;;;5137147;27;19919;-82
2023/04/03 12:56:39;;;;;;;0.40;0.13;;;14.20;81.30;;;;;;5119246;27;20031;-82
2023/04/03 12:59:20;;;;;;;0.20;0.10;;;14.20;82.10;;;;;;5102001;27;20473;-82
2023/04/03 13:01:57;;;;;;;0.00;0.00;;;14.20;72.50;;;;;;5101861;27;20118;-82
2023/04/03 13:04:23;;;;;;;0.10;0.10;;;14.30;86.50;;;;;;5137203;27;20047;-82
2023/04/03 13:06:50;;;;;;;0.55;0.20;;;14.20;71.80;;;;;;5118895;27;20039;-82
2023/04/03 13:09:42;;;;;;;;;;;14.20;70.50;;;;;;5137456;27;20114;-82
2023/04/03 13:12:13;;;;;;;0.00;0.00;;;14.30;67.90;;;;;;5114299;27;19919;-82
2023/04/03 13:14:40;;;;;;;0.08;0.00;;;14.30;68.30;;;;;;5137021;27;20050;-82
2023/04/03 13:17:25;;;;;;;0.55;0.15;;;14.50;74.70;;;;;;5118391;27;20054;-82